sensor_id;sensor_type;location;lat;lon;timestamp;pressure;altitude;pressure_sealevel;temperature;humidity
56582;BME280;42463;52.214;21.238;2022-07-23T00:02:37;100309.73;;;24.35;54.23
56582;BME280;42463;52.214;21.238;2022-07-23T00:05:03;100310.13;;;24.33;54.25
56582;BME280;42463;52.214;21.238;2022-07-23T00:07:30;100308.80;;;24.30;54.52
56582;BME280;42463;52.214;21.238;2022-07-23T00:09:56;100304.73;;;24.29;54.39
56582;BME280;42463;52.214;21.238;2022-07-23T00:12:23;100303.38;;;24.29;54.56
56582;BME280;42463;52.214;21.238;2022-07-23T00:14:49;100302.02;;;24.27;54.52
56582;BME280;42463;52.214;21.238;2022-07-23T00:17:15;100302.40;;;24.22;54.44
56582;BME280;42463;52.214;21.238;2022-07-23T00:19:42;100308.09;;;24.16;54.61
56582;BME280;42463;52.214;21.238;2022-07-23T00:22:08;100304.82;;;24.13;54.88
56582;BME280;42463;52.214;21.238;2022-07-23T00:24:34;100308.57;;;24.11;54.82
56582;BME280;42463;52.214;21.238;2022-07-23T00:27:00;100309.39;;;24.10;55.05
56582;BME280;42463;52.214;21.238;2022-07-23T00:29:27;100309.91;;;24.08;55.34
56582;BME280;42463;52.214;21.238;2022-07-23T00:31:53;100312.74;;;24.06;55.34
56582;BME280;42463;52.214;21.238;2022-07-23T00:34:19;100314.59;;;24.04;55.47
56582;BME280;42463;52.214;21.238;2022-07-23T00:36:45;100312.45;;;23.99;55.35
56582;BME280;42463;52.214;21.238;2022-07-23T00:39:11;100308.48;;;23.92;55.51
56582;BME280;42463;52.214;21.238;2022-07-23T00:41:37;100314.30;;;23.88;55.54
56582;BME280;42463;52.214;21.238;2022-07-23T00:44:20;100311.02;;;23.85;55.69
56582;BME280;42463;52.214;21.238;2022-07-23T00:46:51;100312.89;;;23.81;55.59
56582;BME280;42463;52.214;21.238;2022-07-23T00:49:18;100310.13;;;23.80;55.82
56582;BME280;42463;52.214;21.238;2022-07-23T00:51:44;100311.58;;;23.78;55.88
56582;BME280;42463;52.214;21.238;2022-07-23T00:54:10;100309.20;;;23.75;55.79
56582;BME280;42463;52.214;21.238;2022-07-23T00:56:37;100308.71;;;23.73;55.92
56582;BME280;42463;52.214;21.238;2022-07-23T00:59:04;100312.52;;;23.71;55.99
56582;BME280;42463;52.214;21.238;2022-07-23T01:01:49;100310.95;;;23.69;55.95
56582;BME280;42463;52.214;21.238;2022-07-23T01:04:15;100314.39;;;23.65;56.13
56582;BME280;42463;52.214;21.238;2022-07-23T01:06:42;100318.40;;;23.59;56.23
56582;BME280;42463;52.214;21.238;2022-07-23T01:09:09;100315.09;;;23.55;56.31
56582;BME280;42463;52.214;21.238;2022-07-23T01:11:36;100308.44;;;23.51;56.49
56582;BME280;42463;52.214;21.238;2022-07-23T01:14:13;100306.39;;;23.47;56.80
56582;BME280;42463;52.214;21.238;2022-07-23T01:16:40;100304.80;;;23.39;56.87
56582;BME280;42463;52.214;21.238;2022-07-23T01:19:07;100302.89;;;23.35;56.96
56582;BME280;42463;52.214;21.238;2022-07-23T01:21:34;100302.48;;;23.30;56.85
56582;BME280;42463;52.214;21.238;2022-07-23T01:24:01;100305.40;;;23.25;57.30
56582;BME280;42463;52.214;21.238;2022-07-23T01:26:27;100304.20;;;23.22;57.19
56582;BME280;42463;52.214;21.238;2022-07-23T01:28:53;100306.56;;;23.20;57.33
56582;BME280;42463;52.214;21.238;2022-07-23T01:31:20;100307.50;;;23.17;57.60
56582;BME280;42463;52.214;21.238;2022-07-23T01:33:46;100305.77;;;23.15;57.80
56582;BME280;42463;52.214;21.238;2022-07-23T01:36:13;100306.04;;;23.14;57.86
56582;BME280;42463;52.214;21.238;2022-07-23T01:38:39;100308.30;;;23.13;57.73
56582;BME280;42463;52.214;21.238;2022-07-23T01:41:06;100312.06;;;23.12;57.82
56582;BME280;42463;52.214;21.238;2022-07-23T01:43:32;100314.91;;;23.10;57.72
56582;BME280;42463;52.214;21.238;2022-07-23T01:45:58;100313.55;;;23.08;57.78
56582;BME280;42463;52.214;21.238;2022-07-23T01:48:28;100312.30;;;23.06;57.87
56582;BME280;42463;52.214;21.238;2022-07-23T01:51:13;100309.63;;;23.04;58.04
56582;BME280;42463;52.214;21.238;2022-07-23T01:53:42;100307.45;;;23.01;58.07
56582;BME280;42463;52.214;21.238;2022-07-23T01:56:08;100306.63;;;22.97;57.94
56582;BME280;42463;52.214;21.238;2022-07-23T01:58:35;100300.77;;;22.95;58.00
56582;BME280;42463;52.214;21.238;2022-07-23T02:01:01;100299.60;;;22.89;58.08
56582;BME280;42463;52.214;21.238;2022-07-23T02:03:28;100303.10;;;22.81;58.03
56582;BME280;42463;52.214;21.238;2022-07-23T02:05:54;100300.77;;;22.75;58.34
56582;BME280;42463;52.214;21.238;2022-07-23T02:08:21;100300.02;;;22.70;58.42
56582;BME280;42463;52.214;21.238;2022-07-23T02:10:47;100303.67;;;22.64;58.55
56582;BME280;42463;52.214;21.238;2022-07-23T02:13:13;100306.14;;;22.60;58.92
56582;BME280;42463;52.214;21.238;2022-07-23T02:15:39;100303.39;;;22.58;59.04
56582;BME280;42463;52.214;21.238;2022-07-23T02:18:06;100303.05;;;22.57;59.20
56582;BME280;42463;52.214;21.238;2022-07-23T02:20:33;100297.77;;;22.58;59.15
56582;BME280;42463;52.214;21.238;2022-07-23T02:22:59;100299.75;;;22.58;59.25
56582;BME280;42463;52.214;21.238;2022-07-23T02:25:25;100300.58;;;22.57;59.02
56582;BME280;42463;52.214;21.238;2022-07-23T02:27:54;100300.10;;;22.55;59.10
56582;BME280;42463;52.214;21.238;2022-07-23T02:30:20;100297.31;;;22.54;59.10
56582;BME280;42463;52.214;21.238;2022-07-23T02:32:46;100297.80;;;22.50;59.32
56582;BME280;42463;52.214;21.238;2022-07-23T02:35:12;100295.27;;;22.46;59.26
56582;BME280;42463;52.214;21.238;2022-07-23T02:37:39;100296.73;;;22.43;59.47
56582;BME280;42463;52.214;21.238;2022-07-23T02:40:09;100296.87;;;22.41;59.62
56582;BME280;42463;52.214;21.238;2022-07-23T02:42:36;100299.02;;;22.37;59.33
56582;BME280;42463;52.214;21.238;2022-07-23T02:45:03;100295.69;;;22.33;59.40
56582;BME280;42463;52.214;21.238;2022-07-23T02:47:29;100295.04;;;22.28;59.52
56582;BME280;42463;52.214;21.238;2022-07-23T02:49:57;100294.71;;;22.23;59.22
56582;BME280;42463;52.214;21.238;2022-07-23T02:52:23;100288.38;;;22.19;59.50
56582;BME280;42463;52.214;21.238;2022-07-23T02:54:50;100292.06;;;22.20;59.70
56582;BME280;42463;52.214;21.238;2022-07-23T02:57:15;100292.52;;;22.20;59.77
56582;BME280;42463;52.214;21.238;2022-07-23T02:59:42;100292.66;;;22.20;59.65
56582;BME280;42463;52.214;21.238;2022-07-23T03:02:08;100293.61;;;22.18;59.75
56582;BME280;42463;52.214;21.238;2022-07-23T03:04:34;100297.88;;;22.18;59.69
56582;BME280;42463;52.214;21.238;2022-07-23T03:07:00;100293.96;;;22.17;59.90
56582;BME280;42463;52.214;21.238;2022-07-23T03:09:26;100289.29;;;22.16;59.96
56582;BME280;42463;52.214;21.238;2022-07-23T03:11:52;100287.70;;;22.16;60.09
56582;BME280;42463;52.214;21.238;2022-07-23T03:14:19;100289.48;;;22.17;59.96
56582;BME280;42463;52.214;21.238;2022-07-23T03:16:45;100288.55;;;22.17;60.13
56582;BME280;42463;52.214;21.238;2022-07-23T03:19:11;100286.15;;;22.15;59.93
56582;BME280;42463;52.214;21.238;2022-07-23T03:21:38;100288.47;;;22.13;60.01
56582;BME280;42463;52.214;21.238;2022-07-23T03:24:06;100285.02;;;22.16;59.95
56582;BME280;42463;52.214;21.238;2022-07-23T03:26:32;100285.65;;;22.16;60.16
56582;BME280;42463;52.214;21.238;2022-07-23T03:28:59;100284.23;;;22.16;60.05
56582;BME280;42463;52.214;21.238;2022-07-23T03:31:26;100290.20;;;22.15;60.17
56582;BME280;42463;52.214;21.238;2022-07-23T03:33:52;100290.10;;;22.17;60.26
56582;BME280;42463;52.214;21.238;2022-07-23T03:36:18;100292.80;;;22.21;60.23
56582;BME280;42463;52.214;21.238;2022-07-23T03:38:44;100294.58;;;22.24;60.19
56582;BME280;42463;52.214;21.238;2022-07-23T03:41:10;100299.59;;;22.27;60.07
56582;BME280;42463;52.214;21.238;2022-07-23T03:43:36;100293.76;;;22.29;59.98
56582;BME280;42463;52.214;21.238;2022-07-23T03:46:03;100290.79;;;22.30;60.16
56582;BME280;42463;52.214;21.238;2022-07-23T03:48:30;100288.42;;;22.33;60.23
56582;BME280;42463;52.214;21.238;2022-07-23T03:50:57;100297.59;;;22.35;60.06
56582;BME280;42463;52.214;21.238;2022-07-23T03:53:23;100299.23;;;22.37;60.05
56582;BME280;42463;52.214;21.238;2022-07-23T03:55:49;100304.20;;;22.38;60.06
56582;BME280;42463;52.214;21.238;2022-07-23T03:58:15;100303.73;;;22.40;60.06
56582;BME280;42463;52.214;21.238;2022-07-23T04:00:42;100306.66;;;22.43;59.95
56582;BME280;42463;52.214;21.238;2022-07-23T04:03:08;100302.98;;;22.46;59.92
56582;BME280;42463;52.214;21.238;2022-07-23T04:05:35;100302.02;;;22.47;60.06
56582;BME280;42463;52.214;21.238;2022-07-23T04:08:06;100305.69;;;22.48;60.30
56582;BME280;42463;52.214;21.238;2022-07-23T04:10:34;100314.60;;;22.52;59.93
56582;BME280;42463;52.214;21.238;2022-07-23T04:13:00;100310.39;;;22.55;59.94
56582;BME280;42463;52.214;21.238;2022-07-23T04:15:27;100308.65;;;22.60;60.03
56582;BME280;42463;52.214;21.238;2022-07-23T04:17:53;100311.12;;;22.64;60.20
56582;BME280;42463;52.214;21.238;2022-07-23T04:20:21;100309.13;;;22.70;60.26
56582;BME280;42463;52.214;21.238;2022-07-23T04:22:52;100305.60;;;22.75;60.18
56582;BME280;42463;52.214;21.238;2022-07-23T04:25:18;100302.91;;;22.81;60.36
56582;BME280;42463;52.214;21.238;2022-07-23T04:27:45;100307.25;;;22.87;60.05
56582;BME280;42463;52.214;21.238;2022-07-23T04:30:12;100308.55;;;22.94;60.08
56582;BME280;42463;52.214;21.238;2022-07-23T04:32:38;100307.48;;;22.99;59.88
56582;BME280;42463;52.214;21.238;2022-07-23T04:35:11;100302.43;;;23.04;59.78
56582;BME280;42463;52.214;21.238;2022-07-23T04:37:37;100303.27;;;23.09;59.73
56582;BME280;42463;52.214;21.238;2022-07-23T04:40:05;100305.77;;;23.15;59.99
56582;BME280;42463;52.214;21.238;2022-07-23T04:42:31;100303.88;;;23.22;60.02
56582;BME280;42463;52.214;21.238;2022-07-23T04:44:57;100302.65;;;23.30;60.20
56582;BME280;42463;52.214;21.238;2022-07-23T04:47:24;100304.46;;;23.37;59.70
56582;BME280;42463;52.214;21.238;2022-07-23T04:49:50;100298.92;;;23.43;59.90
56582;BME280;42463;52.214;21.238;2022-07-23T04:52:17;100295.26;;;23.50;59.95
56582;BME280;42463;52.214;21.238;2022-07-23T04:54:43;100296.09;;;23.55;59.91
56582;BME280;42463;52.214;21.238;2022-07-23T04:57:10;100296.96;;;23.62;59.77
56582;BME280;42463;52.214;21.238;2022-07-23T04:59:36;100300.69;;;23.69;59.63
56582;BME280;42463;52.214;21.238;2022-07-23T05:02:02;100299.63;;;23.75;59.17
56582;BME280;42463;52.214;21.238;2022-07-23T05:04:29;100295.48;;;23.81;58.98
56582;BME280;42463;52.214;21.238;2022-07-23T05:06:56;100299.92;;;23.89;58.87
56582;BME280;42463;52.214;21.238;2022-07-23T05:09:22;100300.09;;;23.96;58.91
56582;BME280;42463;52.214;21.238;2022-07-23T05:11:49;100296.19;;;24.03;58.86
56582;BME280;42463;52.214;21.238;2022-07-23T05:14:15;100293.88;;;24.10;58.75
56582;BME280;42463;52.214;21.238;2022-07-23T05:16:42;100299.92;;;24.18;58.43
56582;BME280;42463;52.214;21.238;2022-07-23T05:19:12;100308.33;;;24.26;58.38
56582;BME280;42463;52.214;21.238;2022-07-23T05:21:38;100309.74;;;24.33;57.77
56582;BME280;42463;52.214;21.238;2022-07-23T05:24:05;100315.41;;;24.39;57.82
56582;BME280;42463;52.214;21.238;2022-07-23T05:26:32;100316.63;;;24.45;57.23
56582;BME280;42463;52.214;21.238;2022-07-23T05:28:58;100320.48;;;24.52;57.01
56582;BME280;42463;52.214;21.238;2022-07-23T05:31:24;100322.78;;;24.60;57.05
56582;BME280;42463;52.214;21.238;2022-07-23T05:33:50;100322.52;;;24.68;56.81
56582;BME280;42463;52.214;21.238;2022-07-23T05:36:16;100323.05;;;24.75;56.96
56582;BME280;42463;52.214;21.238;2022-07-23T05:38:49;100324.42;;;24.84;56.61
56582;BME280;42463;52.214;21.238;2022-07-23T05:41:15;100324.63;;;24.91;56.54
56582;BME280;42463;52.214;21.238;2022-07-23T05:43:41;100319.38;;;24.98;56.19
56582;BME280;42463;52.214;21.238;2022-07-23T05:46:09;100318.02;;;25.04;56.32
56582;BME280;42463;52.214;21.238;2022-07-23T05:48:36;100320.91;;;25.12;55.82
56582;BME280;42463;52.214;21.238;2022-07-23T05:51:08;100319.28;;;25.19;55.28
56582;BME280;42463;52.214;21.238;2022-07-23T05:53:35;100318.27;;;25.26;55.10
56582;BME280;42463;52.214;21.238;2022-07-23T05:56:09;100316.74;;;25.34;55.14
56582;BME280;42463;52.214;21.238;2022-07-23T05:58:35;100309.91;;;25.42;54.80
56582;BME280;42463;52.214;21.238;2022-07-23T06:01:01;100303.39;;;25.51;54.69
56582;BME280;42463;52.214;21.238;2022-07-23T06:03:30;100305.42;;;25.59;54.32
56582;BME280;42463;52.214;21.238;2022-07-23T06:05:56;100306.87;;;25.68;54.01
56582;BME280;42463;52.214;21.238;2022-07-23T06:08:23;100302.86;;;25.76;53.30
56582;BME280;42463;52.214;21.238;2022-07-23T06:10:49;100298.30;;;25.84;53.22
56582;BME280;42463;52.214;21.238;2022-07-23T06:13:15;100301.52;;;25.92;53.26
56582;BME280;42463;52.214;21.238;2022-07-23T06:15:43;100303.41;;;26.01;53.22
56582;BME280;42463;52.214;21.238;2022-07-23T06:18:09;100299.16;;;26.09;52.95
56582;BME280;42463;52.214;21.238;2022-07-23T06:20:37;100303.64;;;26.17;52.79
56582;BME280;42463;52.214;21.238;2022-07-23T06:23:03;100303.24;;;26.24;52.12
56582;BME280;42463;52.214;21.238;2022-07-23T06:25:30;100307.19;;;26.33;51.91
56582;BME280;42463;52.214;21.238;2022-07-23T06:27:56;100304.83;;;26.40;51.85
56582;BME280;42463;52.214;21.238;2022-07-23T06:30:22;100299.61;;;26.49;51.17
56582;BME280;42463;52.214;21.238;2022-07-23T06:32:49;100305.43;;;26.57;51.12
56582;BME280;42463;52.214;21.238;2022-07-23T06:35:15;100296.77;;;26.64;50.87
56582;BME280;42463;52.214;21.238;2022-07-23T06:37:45;100297.48;;;26.72;50.54
56582;BME280;42463;52.214;21.238;2022-07-23T06:40:13;100297.66;;;26.81;50.59
56582;BME280;42463;52.214;21.238;2022-07-23T06:42:39;100299.50;;;26.89;50.61
56582;BME280;42463;52.214;21.238;2022-07-23T06:45:09;100302.59;;;26.96;49.99
56582;BME280;42463;52.214;21.238;2022-07-23T06:47:35;100299.39;;;27.02;49.50
56582;BME280;42463;52.214;21.238;2022-07-23T06:50:02;100298.13;;;27.10;49.68
56582;BME280;42463;52.214;21.238;2022-07-23T06:52:28;100301.45;;;27.17;49.57
56582;BME280;42463;52.214;21.238;2022-07-23T06:54:54;100298.73;;;27.25;49.42
56582;BME280;42463;52.214;21.238;2022-07-23T06:57:21;100296.83;;;27.34;48.90
56582;BME280;42463;52.214;21.238;2022-07-23T06:59:48;100299.31;;;27.44;49.07
56582;BME280;42463;52.214;21.238;2022-07-23T07:02:15;100298.03;;;27.52;49.20
56582;BME280;42463;52.214;21.238;2022-07-23T07:04:41;100293.79;;;27.59;48.63
56582;BME280;42463;52.214;21.238;2022-07-23T07:07:07;100291.78;;;27.67;48.12
56582;BME280;42463;52.214;21.238;2022-07-23T07:09:33;100290.91;;;27.72;47.39
56582;BME280;42463;52.214;21.238;2022-07-23T07:11:59;100284.56;;;27.78;47.53
56582;BME280;42463;52.214;21.238;2022-07-23T07:14:26;100282.86;;;27.87;48.58
56582;BME280;42463;52.214;21.238;2022-07-23T07:16:53;100282.91;;;27.95;48.36
56582;BME280;42463;52.214;21.238;2022-07-23T07:19:19;100280.25;;;28.03;48.41
56582;BME280;42463;52.214;21.238;2022-07-23T07:21:45;100280.14;;;28.11;47.94
56582;BME280;42463;52.214;21.238;2022-07-23T07:24:11;100278.50;;;28.17;46.67
56582;BME280;42463;52.214;21.238;2022-07-23T07:26:37;100277.58;;;28.23;46.82
56582;BME280;42463;52.214;21.238;2022-07-23T07:29:04;100278.08;;;28.31;46.87
56582;BME280;42463;52.214;21.238;2022-07-23T07:31:30;100276.75;;;28.39;46.53
56582;BME280;42463;52.214;21.238;2022-07-23T07:33:57;100271.58;;;28.46;46.15
56582;BME280;42463;52.214;21.238;2022-07-23T07:36:24;100273.28;;;28.53;45.95
56582;BME280;42463;52.214;21.238;2022-07-23T07:38:50;100276.98;;;28.62;46.04
56582;BME280;42463;52.214;21.238;2022-07-23T07:41:16;100271.49;;;28.70;45.51
56582;BME280;42463;52.214;21.238;2022-07-23T07:43:47;100274.84;;;28.77;44.42
56582;BME280;42463;52.214;21.238;2022-07-23T07:46:13;100271.88;;;28.86;44.93
56582;BME280;42463;52.214;21.238;2022-07-23T07:48:39;100269.50;;;28.95;44.47
56582;BME280;42463;52.214;21.238;2022-07-23T07:51:05;100274.85;;;29.03;44.24
56582;BME280;42463;52.214;21.238;2022-07-23T07:53:32;100269.98;;;29.11;43.64
56582;BME280;42463;52.214;21.238;2022-07-23T07:55:58;100274.81;;;29.19;43.52
56582;BME280;42463;52.214;21.238;2022-07-23T07:58:24;100273.45;;;29.27;43.17
56582;BME280;42463;52.214;21.238;2022-07-23T08:00:50;100270.98;;;29.35;44.11
56582;BME280;42463;52.214;21.238;2022-07-23T08:03:16;100276.17;;;29.43;44.24
56582;BME280;42463;52.214;21.238;2022-07-23T08:05:42;100276.96;;;29.50;43.19
56582;BME280;42463;52.214;21.238;2022-07-23T08:08:08;100277.27;;;29.56;42.22
56582;BME280;42463;52.214;21.238;2022-07-23T08:10:39;100276.77;;;29.64;42.23
56582;BME280;42463;52.214;21.238;2022-07-23T08:13:06;100280.12;;;29.72;41.95
56582;BME280;42463;52.214;21.238;2022-07-23T08:15:32;100274.64;;;29.76;41.18
56582;BME280;42463;52.214;21.238;2022-07-23T08:17:58;100274.04;;;29.82;41.03
56582;BME280;42463;52.214;21.238;2022-07-23T08:20:25;100270.24;;;29.87;41.03
56582;BME280;42463;52.214;21.238;2022-07-23T08:22:54;100270.70;;;29.95;41.13
56582;BME280;42463;52.214;21.238;2022-07-23T08:25:24;100275.80;;;30.03;40.92
56582;BME280;42463;52.214;21.238;2022-07-23T08:27:51;100271.69;;;30.09;40.11
56582;BME280;42463;52.214;21.238;2022-07-23T08:30:17;100276.77;;;30.15;39.71
56582;BME280;42463;52.214;21.238;2022-07-23T08:32:58;100278.42;;;30.20;39.28
56582;BME280;42463;52.214;21.238;2022-07-23T08:35:30;100278.05;;;30.25;39.49
56582;BME280;42463;52.214;21.238;2022-07-23T08:37:58;100275.11;;;30.27;38.62
56582;BME280;42463;52.214;21.238;2022-07-23T08:40:25;100278.35;;;30.33;38.80
56582;BME280;42463;52.214;21.238;2022-07-23T08:42:52;100271.74;;;30.40;39.33
56582;BME280;42463;52.214;21.238;2022-07-23T08:45:23;100271.64;;;30.50;39.77
56582;BME280;42463;52.214;21.238;2022-07-23T08:47:51;100272.83;;;30.61;39.49
56582;BME280;42463;52.214;21.238;2022-07-23T08:50:18;100275.59;;;30.69;39.03
56582;BME280;42463;52.214;21.238;2022-07-23T08:52:44;100271.61;;;30.76;38.73
56582;BME280;42463;52.214;21.238;2022-07-23T08:55:10;100273.32;;;30.83;37.17
56582;BME280;42463;52.214;21.238;2022-07-23T08:57:37;100268.52;;;30.90;37.05
56582;BME280;42463;52.214;21.238;2022-07-23T09:00:05;100270.06;;;30.96;36.82
56582;BME280;42463;52.214;21.238;2022-07-23T09:02:32;100263.98;;;31.01;37.10
56582;BME280;42463;52.214;21.238;2022-07-23T09:05:04;100269.62;;;31.07;37.16
56582;BME280;42463;52.214;21.238;2022-07-23T09:07:31;100264.76;;;31.14;37.27
56582;BME280;42463;52.214;21.238;2022-07-23T09:10:10;100263.98;;;31.18;36.17
56582;BME280;42463;52.214;21.238;2022-07-23T09:12:37;100263.11;;;31.20;36.22
56582;BME280;42463;52.214;21.238;2022-07-23T09:15:09;100264.10;;;31.24;36.05
56582;BME280;42463;52.214;21.238;2022-07-23T09:17:42;100266.52;;;31.30;36.42
56582;BME280;42463;52.214;21.238;2022-07-23T09:20:15;100258.98;;;31.36;36.20
56582;BME280;42463;52.214;21.238;2022-07-23T09:22:41;100261.08;;;31.42;36.67
56582;BME280;42463;52.214;21.238;2022-07-23T09:25:15;100260.84;;;31.50;36.38
56582;BME280;42463;52.214;21.238;2022-07-23T09:27:58;100257.88;;;31.53;34.60
56582;BME280;42463;52.214;21.238;2022-07-23T09:30:29;100256.43;;;31.57;35.55
56582;BME280;42463;52.214;21.238;2022-07-23T09:33:13;100254.67;;;31.63;35.02
56582;BME280;42463;52.214;21.238;2022-07-23T09:35:52;100254.77;;;31.71;35.40
56582;BME280;42463;52.214;21.238;2022-07-23T09:38:20;100256.45;;;31.77;34.61
56582;BME280;42463;52.214;21.238;2022-07-23T09:40:47;100252.52;;;31.83;35.00
56582;BME280;42463;52.214;21.238;2022-07-23T09:43:30;100253.30;;;31.90;34.85
56582;BME280;42463;52.214;21.238;2022-07-23T09:46:20;100252.73;;;31.98;34.12
56582;BME280;42463;52.214;21.238;2022-07-23T09:48:47;100251.04;;;32.06;33.16
56582;BME280;42463;52.214;21.238;2022-07-23T09:51:14;100244.77;;;32.14;32.29
56582;BME280;42463;52.214;21.238;2022-07-23T09:53:41;100240.09;;;32.21;32.29
56582;BME280;42463;52.214;21.238;2022-07-23T09:56:09;100238.77;;;32.28;32.78
56582;BME280;42463;52.214;21.238;2022-07-23T09:58:40;100238.27;;;32.34;32.54
56582;BME280;42463;52.214;21.238;2022-07-23T10:01:14;100246.11;;;32.40;32.66
56582;BME280;42463;52.214;21.238;2022-07-23T10:03:41;100240.48;;;32.45;33.07
56582;BME280;42463;52.214;21.238;2022-07-23T10:06:27;100235.46;;;32.53;34.00
56582;BME280;42463;52.214;21.238;2022-07-23T10:09:13;100235.98;;;32.60;32.15
56582;BME280;42463;52.214;21.238;2022-07-23T10:12:08;100234.10;;;32.68;32.24
56582;BME280;42463;52.214;21.238;2022-07-23T10:15:01;100232.06;;;32.75;31.80
56582;BME280;42463;52.214;21.238;2022-07-23T10:17:28;100227.80;;;32.81;32.00
56582;BME280;42463;52.214;21.238;2022-07-23T10:19:55;100228.90;;;32.85;31.83
56582;BME280;42463;52.214;21.238;2022-07-23T10:22:25;100223.34;;;32.90;31.28
56582;BME280;42463;52.214;21.238;2022-07-23T10:25:15;100228.30;;;32.91;30.81
56582;BME280;42463;52.214;21.238;2022-07-23T10:28:09;100221.96;;;32.91;30.75
56582;BME280;42463;52.214;21.238;2022-07-23T10:30:48;100222.19;;;32.94;31.02
56582;BME280;42463;52.214;21.238;2022-07-23T10:33:30;100223.52;;;32.97;31.00
56582;BME280;42463;52.214;21.238;2022-07-23T10:36:04;100224.95;;;33.00;31.51
56582;BME280;42463;52.214;21.238;2022-07-23T10:38:40;100225.02;;;33.03;30.97
56582;BME280;42463;52.214;21.238;2022-07-23T10:41:09;100224.04;;;33.05;31.31
56582;BME280;42463;52.214;21.238;2022-07-23T10:43:35;100218.31;;;33.09;31.77
56582;BME280;42463;52.214;21.238;2022-07-23T10:46:24;100213.36;;;33.16;31.75
56582;BME280;42463;52.214;21.238;2022-07-23T10:49:29;100219.98;;;33.24;31.12
56582;BME280;42463;52.214;21.238;2022-07-23T10:52:25;100221.48;;;33.31;31.03
56582;BME280;42463;52.214;21.238;2022-07-23T10:54:53;100225.55;;;33.37;30.82
56582;BME280;42463;52.214;21.238;2022-07-23T10:57:20;100219.77;;;33.36;30.50
56582;BME280;42463;52.214;21.238;2022-07-23T11:00:27;100217.44;;;33.37;30.99
56582;BME280;42463;52.214;21.238;2022-07-23T11:02:55;100218.86;;;33.40;30.91
56582;BME280;42463;52.214;21.238;2022-07-23T11:05:24;100222.44;;;33.44;31.36
56582;BME280;42463;52.214;21.238;2022-07-23T11:08:20;100216.30;;;33.47;30.64
56582;BME280;42463;52.214;21.238;2022-07-23T11:10:50;100221.96;;;33.52;30.43
56582;BME280;42463;52.214;21.238;2022-07-23T11:13:33;100218.08;;;33.56;30.10
56582;BME280;42463;52.214;21.238;2022-07-23T11:16:19;100210.23;;;33.59;30.07
56582;BME280;42463;52.214;21.238;2022-07-23T11:19:11;100216.15;;;33.63;29.89
56582;BME280;42463;52.214;21.238;2022-07-23T11:21:52;100217.73;;;33.67;30.28
56582;BME280;42463;52.214;21.238;2022-07-23T11:24:21;100220.48;;;33.72;29.84
56582;BME280;42463;52.214;21.238;2022-07-23T11:27:02;100207.45;;;33.75;29.25
56582;BME280;42463;52.214;21.238;2022-07-23T11:29:46;100205.46;;;33.81;29.72
56582;BME280;42463;52.214;21.238;2022-07-23T11:32:39;100203.96;;;33.88;30.17
56582;BME280;42463;52.214;21.238;2022-07-23T11:35:22;100207.66;;;33.96;29.10
56582;BME280;42463;52.214;21.238;2022-07-23T11:37:49;100207.78;;;33.99;29.11
56582;BME280;42463;52.214;21.238;2022-07-23T11:40:19;100208.33;;;34.01;29.76
56582;BME280;42463;52.214;21.238;2022-07-23T11:42:56;100195.59;;;34.04;29.22
56582;BME280;42463;52.214;21.238;2022-07-23T11:45:23;100194.66;;;34.06;29.49
56582;BME280;42463;52.214;21.238;2022-07-23T11:47:50;100199.45;;;34.10;29.55
56582;BME280;42463;52.214;21.238;2022-07-23T11:50:17;100199.18;;;34.13;29.18
56582;BME280;42463;52.214;21.238;2022-07-23T11:52:43;100202.91;;;34.17;28.98
56582;BME280;42463;52.214;21.238;2022-07-23T11:55:11;100198.77;;;34.20;28.87
56582;BME280;42463;52.214;21.238;2022-07-23T11:57:42;100198.20;;;34.21;28.68
56582;BME280;42463;52.214;21.238;2022-07-23T12:00:11;100197.39;;;34.21;29.04
56582;BME280;42463;52.214;21.238;2022-07-23T12:02:39;100194.86;;;34.23;29.09
56582;BME280;42463;52.214;21.238;2022-07-23T12:05:08;100192.70;;;34.29;29.81
56582;BME280;42463;52.214;21.238;2022-07-23T12:07:39;100186.58;;;34.34;29.06
56582;BME280;42463;52.214;21.238;2022-07-23T12:10:11;100179.15;;;34.37;28.93
56582;BME280;42463;52.214;21.238;2022-07-23T12:12:43;100178.98;;;34.38;29.43
56582;BME280;42463;52.214;21.238;2022-07-23T12:15:11;100174.90;;;34.42;29.43
56582;BME280;42463;52.214;21.238;2022-07-23T12:17:42;100169.39;;;34.44;28.70
56582;BME280;42463;52.214;21.238;2022-07-23T12:20:12;100165.42;;;34.46;29.04
56582;BME280;42463;52.214;21.238;2022-07-23T12:22:41;100159.29;;;34.53;28.82
56582;BME280;42463;52.214;21.238;2022-07-23T12:25:12;100156.97;;;34.58;28.46
56582;BME280;42463;52.214;21.238;2022-07-23T12:27:38;100154.02;;;34.61;28.45
56582;BME280;42463;52.214;21.238;2022-07-23T12:32:35;100143.61;;;34.68;29.05
56582;BME280;42463;52.214;21.238;2022-07-23T12:35:08;100145.27;;;34.71;29.51
56582;BME280;42463;52.214;21.238;2022-07-23T12:37:36;100143.73;;;34.71;29.48
56582;BME280;42463;52.214;21.238;2022-07-23T12:40:29;100136.73;;;34.71;28.91
56582;BME280;42463;52.214;21.238;2022-07-23T12:42:58;100136.09;;;34.71;29.17
56582;BME280;42463;52.214;21.238;2022-07-23T12:45:25;100131.83;;;34.71;29.16
56582;BME280;42463;52.214;21.238;2022-07-23T12:48:03;100131.42;;;34.70;29.24
56582;BME280;42463;52.214;21.238;2022-07-23T12:50:55;100126.83;;;34.71;29.11
56582;BME280;42463;52.214;21.238;2022-07-23T12:53:24;100117.61;;;34.74;29.04
56582;BME280;42463;52.214;21.238;2022-07-23T12:55:56;100118.04;;;34.77;29.42